sensor_id;sensor_type;location;lat;lon;timestamp;P1;durP1;ratioP1;P2;durP2;ratioP2
70467;SDS011;57934;51.532;7.684;2022-09-09T00:01:23;2.88;;;1.00;;
70467;SDS011;57934;51.532;7.684;2022-09-09T00:04:09;3.65;;;0.90;;
70467;SDS011;57934;51.532;7.684;2022-09-09T00:06:51;2.90;;;0.80;;
70467;SDS011;57934;51.532;7.684;2022-09-09T00:09:46;1.85;;;1.00;;
70467;SDS011;57934;51.532;7.684;2022-09-09T00:15:22;1.83;;;1.05;;
70467;SDS011;57934;51.532;7.684;2022-09-09T00:17:52;4.10;;;1.05;;
70467;SDS011;57934;51.532;7.684;2022-09-09T00:20:30;2.60;;;0.80;;
70467;SDS011;57934;51.532;7.684;2022-09-09T00:23:11;1.58;;;0.60;;
70467;SDS011;57934;51.532;7.684;2022-09-09T00:25:47;1.13;;;0.63;;
70467;SDS011;57934;51.532;7.684;2022-09-09T00:28:19;1.17;;;0.70;;
70467;SDS011;57934;51.532;7.684;2022-09-09T00:30:48;1.73;;;0.90;;
70467;SDS011;57934;51.532;7.684;2022-09-09T00:33:15;2.50;;;0.73;;
70467;SDS011;57934;51.532;7.684;2022-09-09T00:35:45;1.60;;;0.80;;
70467;SDS011;57934;51.532;7.684;2022-09-09T00:38:23;1.67;;;0.60;;
70467;SDS011;57934;51.532;7.684;2022-09-09T00:40:55;1.92;;;0.73;;
70467;SDS011;57934;51.532;7.684;2022-09-09T00:43:31;3.40;;;0.80;;
70467;SDS011;57934;51.532;7.684;2022-09-09T00:51:15;1.33;;;0.63;;
70467;SDS011;57934;51.532;7.684;2022-09-09T00:54:03;2.95;;;0.90;;
70467;SDS011;57934;51.532;7.684;2022-09-09T00:57:07;1.60;;;0.70;;
70467;SDS011;57934;51.532;7.684;2022-09-09T00:59:49;2.10;;;0.80;;
70467;SDS011;57934;51.532;7.684;2022-09-09T01:02:29;2.10;;;0.80;;
70467;SDS011;57934;51.532;7.684;2022-09-09T01:05:09;4.07;;;0.90;;
70467;SDS011;57934;51.532;7.684;2022-09-09T01:07:44;2.85;;;0.95;;
70467;SDS011;57934;51.532;7.684;2022-09-09T01:10:57;3.83;;;0.82;;
70467;SDS011;57934;51.532;7.684;2022-09-09T01:13:20;5.72;;;1.23;;
70467;SDS011;57934;51.532;7.684;2022-09-09T01:15:50;3.08;;;1.15;;
70467;SDS011;57934;51.532;7.684;2022-09-09T01:18:20;7.07;;;1.05;;
70467;SDS011;57934;51.532;7.684;2022-09-09T01:23:38;2.35;;;0.85;;
70467;SDS011;57934;51.532;7.684;2022-09-09T01:26:34;8.07;;;1.48;;
70467;SDS011;57934;51.532;7.684;2022-09-09T01:29:08;3.10;;;1.00;;
70467;SDS011;57934;51.532;7.684;2022-09-09T01:31:40;5.88;;;1.65;;
70467;SDS011;57934;51.532;7.684;2022-09-09T01:34:14;2.28;;;1.30;;
70467;SDS011;57934;51.532;7.684;2022-09-09T01:36:43;4.85;;;1.48;;
70467;SDS011;57934;51.532;7.684;2022-09-09T01:39:15;2.80;;;1.25;;
70467;SDS011;57934;51.532;7.684;2022-09-09T01:41:44;4.43;;;1.50;;
70467;SDS011;57934;51.532;7.684;2022-09-09T01:44:12;3.42;;;1.63;;
70467;SDS011;57934;51.532;7.684;2022-09-09T01:46:41;3.95;;;1.13;;
70467;SDS011;57934;51.532;7.684;2022-09-09T01:49:13;3.80;;;1.17;;
70467;SDS011;57934;51.532;7.684;2022-09-09T01:51:40;2.30;;;1.02;;
70467;SDS011;57934;51.532;7.684;2022-09-09T01:54:11;6.38;;;1.73;;
70467;SDS011;57934;51.532;7.684;2022-09-09T01:56:47;6.22;;;1.70;;
70467;SDS011;57934;51.532;7.684;2022-09-09T01:59:54;7.95;;;1.58;;
70467;SDS011;57934;51.532;7.684;2022-09-09T02:02:30;2.63;;;1.02;;
70467;SDS011;57934;51.532;7.684;2022-09-09T02:05:24;3.40;;;1.15;;
70467;SDS011;57934;51.532;7.684;2022-09-09T02:07:56;3.35;;;1.13;;
70467;SDS011;57934;51.532;7.684;2022-09-09T02:10:42;3.30;;;1.10;;
70467;SDS011;57934;51.532;7.684;2022-09-09T02:13:31;3.45;;;1.10;;
70467;SDS011;57934;51.532;7.684;2022-09-09T02:16:03;3.20;;;1.50;;
70467;SDS011;57934;51.532;7.684;2022-09-09T02:18:55;3.30;;;1.20;;
70467;SDS011;57934;51.532;7.684;2022-09-09T02:21:36;3.63;;;1.40;;
70467;SDS011;57934;51.532;7.684;2022-09-09T02:24:04;5.57;;;1.50;;
70467;SDS011;57934;51.532;7.684;2022-09-09T02:29:17;4.07;;;1.13;;
70467;SDS011;57934;51.532;7.684;2022-09-09T02:31:45;3.10;;;1.08;;
70467;SDS011;57934;51.532;7.684;2022-09-09T02:34:17;5.00;;;1.27;;
70467;SDS011;57934;51.532;7.684;2022-09-09T02:36:46;4.07;;;1.08;;
70467;SDS011;57934;51.532;7.684;2022-09-09T02:39:14;5.85;;;1.60;;
70467;SDS011;57934;51.532;7.684;2022-09-09T02:41:41;5.00;;;1.38;;
70467;SDS011;57934;51.532;7.684;2022-09-09T02:44:11;3.25;;;0.90;;
70467;SDS011;57934;51.532;7.684;2022-09-09T02:59:49;1.92;;;0.90;;
70467;SDS011;57934;51.532;7.684;2022-09-09T03:02:18;9.60;;;1.33;;
70467;SDS011;57934;51.532;7.684;2022-09-09T03:04:48;4.43;;;1.17;;
70467;SDS011;57934;51.532;7.684;2022-09-09T03:07:17;4.32;;;1.00;;
70467;SDS011;57934;51.532;7.684;2022-09-09T03:09:45;3.15;;;1.30;;
70467;SDS011;57934;51.532;7.684;2022-09-09T03:12:11;4.07;;;1.00;;
70467;SDS011;57934;51.532;7.684;2022-09-09T03:14:38;4.57;;;1.08;;
70467;SDS011;57934;51.532;7.684;2022-09-09T03:17:05;6.70;;;1.25;;
70467;SDS011;57934;51.532;7.684;2022-09-09T03:19:36;2.72;;;1.00;;
70467;SDS011;57934;51.532;7.684;2022-09-09T03:22:03;4.43;;;1.20;;
70467;SDS011;57934;51.532;7.684;2022-09-09T03:24:31;4.53;;;1.05;;
70467;SDS011;57934;51.532;7.684;2022-09-09T03:26:57;2.17;;;0.80;;
70467;SDS011;57934;51.532;7.684;2022-09-09T03:29:23;2.47;;;1.13;;
70467;SDS011;57934;51.532;7.684;2022-09-09T03:31:53;2.80;;;1.20;;
70467;SDS011;57934;51.532;7.684;2022-09-09T03:34:20;4.50;;;0.93;;
70467;SDS011;57934;51.532;7.684;2022-09-09T03:36:46;3.33;;;0.90;;
70467;SDS011;57934;51.532;7.684;2022-09-09T03:39:14;4.28;;;1.30;;
70467;SDS011;57934;51.532;7.684;2022-09-09T03:41:42;1.73;;;0.85;;
70467;SDS011;57934;51.532;7.684;2022-09-09T03:44:10;3.38;;;0.90;;
70467;SDS011;57934;51.532;7.684;2022-09-09T03:46:39;3.85;;;1.00;;
70467;SDS011;57934;51.532;7.684;2022-09-09T03:49:05;5.50;;;1.40;;
70467;SDS011;57934;51.532;7.684;2022-09-09T03:51:31;5.35;;;1.10;;
70467;SDS011;57934;51.532;7.684;2022-09-09T03:54:01;3.10;;;1.00;;
70467;SDS011;57934;51.532;7.684;2022-09-09T03:56:28;4.53;;;0.88;;
70467;SDS011;57934;51.532;7.684;2022-09-09T03:58:54;5.55;;;1.05;;
70467;SDS011;57934;51.532;7.684;2022-09-09T04:01:20;4.75;;;1.00;;
70467;SDS011;57934;51.532;7.684;2022-09-09T04:03:47;4.13;;;1.10;;
70467;SDS011;57934;51.532;7.684;2022-09-09T04:06:13;2.97;;;1.10;;
70467;SDS011;57934;51.532;7.684;2022-09-09T04:08:43;5.32;;;1.08;;
70467;SDS011;57934;51.532;7.684;2022-09-09T04:11:13;6.32;;;1.30;;
70467;SDS011;57934;51.532;7.684;2022-09-09T04:13:40;5.57;;;1.40;;
70467;SDS011;57934;51.532;7.684;2022-09-09T04:16:09;6.82;;;1.55;;
70467;SDS011;57934;51.532;7.684;2022-09-09T04:18:37;3.63;;;1.27;;
70467;SDS011;57934;51.532;7.684;2022-09-09T04:21:03;6.68;;;1.20;;
70467;SDS011;57934;51.532;7.684;2022-09-09T04:23:31;5.05;;;1.55;;
70467;SDS011;57934;51.532;7.684;2022-09-09T04:26:00;6.18;;;1.42;;
70467;SDS011;57934;51.532;7.684;2022-09-09T04:28:28;6.15;;;1.38;;
70467;SDS011;57934;51.532;7.684;2022-09-09T04:30:57;6.45;;;1.40;;
70467;SDS011;57934;51.532;7.684;2022-09-09T04:33:29;4.07;;;1.33;;
70467;SDS011;57934;51.532;7.684;2022-09-09T04:35:57;6.38;;;1.73;;
70467;SDS011;57934;51.532;7.684;2022-09-09T04:38:24;3.88;;;1.30;;
70467;SDS011;57934;51.532;7.684;2022-09-09T04:40:52;5.97;;;1.50;;
70467;SDS011;57934;51.532;7.684;2022-09-09T04:43:20;4.05;;;1.40;;
70467;SDS011;57934;51.532;7.684;2022-09-09T04:45:47;6.60;;;1.60;;
70467;SDS011;57934;51.532;7.684;2022-09-09T04:48:14;5.72;;;1.95;;
70467;SDS011;57934;51.532;7.684;2022-09-09T04:50:41;5.78;;;1.42;;
70467;SDS011;57934;51.532;7.684;2022-09-09T04:53:09;5.88;;;1.50;;
70467;SDS011;57934;51.532;7.684;2022-09-09T04:55:37;4.68;;;1.40;;
70467;SDS011;57934;51.532;7.684;2022-09-09T04:58:04;3.83;;;1.30;;
70467;SDS011;57934;51.532;7.684;2022-09-09T05:00:32;5.38;;;1.80;;
70467;SDS011;57934;51.532;7.684;2022-09-09T05:03:04;3.15;;;1.30;;
70467;SDS011;57934;51.532;7.684;2022-09-09T05:05:32;4.03;;;1.48;;
70467;SDS011;57934;51.532;7.684;2022-09-09T05:08:03;8.98;;;2.08;;
70467;SDS011;57934;51.532;7.684;2022-09-09T05:10:30;7.10;;;1.40;;
70467;SDS011;57934;51.532;7.684;2022-09-09T05:12:58;5.13;;;1.50;;
70467;SDS011;57934;51.532;7.684;2022-09-09T05:15:27;3.40;;;1.60;;
70467;SDS011;57934;51.532;7.684;2022-09-09T05:17:58;3.08;;;1.30;;
70467;SDS011;57934;51.532;7.684;2022-09-09T05:20:26;2.85;;;1.27;;
70467;SDS011;57934;51.532;7.684;2022-09-09T05:22:53;5.97;;;1.13;;
70467;SDS011;57934;51.532;7.684;2022-09-09T05:25:20;4.95;;;1.40;;
70467;SDS011;57934;51.532;7.684;2022-09-09T05:27:48;6.13;;;1.85;;
70467;SDS011;57934;51.532;7.684;2022-09-09T05:30:15;7.88;;;2.15;;
70467;SDS011;57934;51.532;7.684;2022-09-09T05:32:41;7.00;;;1.50;;
70467;SDS011;57934;51.532;7.684;2022-09-09T05:35:07;5.10;;;1.40;;
70467;SDS011;57934;51.532;7.684;2022-09-09T05:37:34;4.43;;;1.33;;
70467;SDS011;57934;51.532;7.684;2022-09-09T05:40:00;8.90;;;2.17;;
70467;SDS011;57934;51.532;7.684;2022-09-09T05:42:30;6.80;;;1.83;;
70467;SDS011;57934;51.532;7.684;2022-09-09T05:44:58;3.88;;;1.35;;
70467;SDS011;57934;51.532;7.684;2022-09-09T05:47:24;5.88;;;1.90;;
70467;SDS011;57934;51.532;7.684;2022-09-09T05:49:53;4.43;;;2.05;;
70467;SDS011;57934;51.532;7.684;2022-09-09T05:52:21;7.85;;;1.30;;
70467;SDS011;57934;51.532;7.684;2022-09-09T05:54:48;6.38;;;1.40;;
70467;SDS011;57934;51.532;7.684;2022-09-09T05:57:14;5.13;;;1.45;;
70467;SDS011;57934;51.532;7.684;2022-09-09T05:59:40;6.90;;;1.42;;
70467;SDS011;57934;51.532;7.684;2022-09-09T06:02:07;3.38;;;1.40;;
70467;SDS011;57934;51.532;7.684;2022-09-09T06:04:36;8.70;;;2.00;;
70467;SDS011;57934;51.532;7.684;2022-09-09T06:07:03;3.20;;;1.48;;
70467;SDS011;57934;51.532;7.684;2022-09-09T06:09:30;10.65;;;1.60;;
70467;SDS011;57934;51.532;7.684;2022-09-09T06:11:56;2.65;;;1.10;;
70467;SDS011;57934;51.532;7.684;2022-09-09T06:14:24;6.65;;;2.13;;
70467;SDS011;57934;51.532;7.684;2022-09-09T06:16:52;4.35;;;1.35;;
70467;SDS011;57934;51.532;7.684;2022-09-09T06:19:21;3.47;;;1.20;;
70467;SDS011;57934;51.532;7.684;2022-09-09T06:21:47;7.03;;;1.48;;
70467;SDS011;57934;51.532;7.684;2022-09-09T06:24:15;5.30;;;1.60;;
70467;SDS011;57934;51.532;7.684;2022-09-09T06:26:43;8.85;;;1.13;;
70467;SDS011;57934;51.532;7.684;2022-09-09T06:29:13;5.53;;;1.20;;
70467;SDS011;57934;51.532;7.684;2022-09-09T06:31:41;6.15;;;1.50;;
70467;SDS011;57934;51.532;7.684;2022-09-09T06:34:13;5.38;;;1.50;;
70467;SDS011;57934;51.532;7.684;2022-09-09T06:36:44;4.90;;;1.52;;
70467;SDS011;57934;51.532;7.684;2022-09-09T06:39:11;4.57;;;1.45;;
70467;SDS011;57934;51.532;7.684;2022-09-09T06:41:39;7.38;;;1.40;;
70467;SDS011;57934;51.532;7.684;2022-09-09T06:44:09;5.93;;;1.33;;
70467;SDS011;57934;51.532;7.684;2022-09-09T06:46:41;4.45;;;1.40;;
70467;SDS011;57934;51.532;7.684;2022-09-09T06:49:08;4.10;;;1.20;;
70467;SDS011;57934;51.532;7.684;2022-09-09T06:51:35;6.03;;;1.70;;
70467;SDS011;57934;51.532;7.684;2022-09-09T06:54:09;4.23;;;1.30;;
70467;SDS011;57934;51.532;7.684;2022-09-09T06:56:37;8.15;;;1.70;;
70467;SDS011;57934;51.532;7.684;2022-09-09T06:59:09;4.67;;;1.33;;
70467;SDS011;57934;51.532;7.684;2022-09-09T07:01:38;5.80;;;1.50;;
70467;SDS011;57934;51.532;7.684;2022-09-09T07:04:12;5.68;;;1.13;;
70467;SDS011;57934;51.532;7.684;2022-09-09T07:06:42;5.53;;;1.65;;
70467;SDS011;57934;51.532;7.684;2022-09-09T07:09:13;5.40;;;1.33;;
70467;SDS011;57934;51.532;7.684;2022-09-09T07:11:44;3.80;;;1.33;;
70467;SDS011;57934;51.532;7.684;2022-09-09T07:14:12;4.50;;;1.30;;
70467;SDS011;57934;51.532;7.684;2022-09-09T07:16:40;6.47;;;1.38;;
70467;SDS011;57934;51.532;7.684;2022-09-09T07:19:08;5.18;;;1.30;;
70467;SDS011;57934;51.532;7.684;2022-09-09T07:21:36;4.93;;;1.40;;
70467;SDS011;57934;51.532;7.684;2022-09-09T07:24:02;8.93;;;1.38;;
70467;SDS011;57934;51.532;7.684;2022-09-09T07:26:32;4.00;;;1.20;;
70467;SDS011;57934;51.532;7.684;2022-09-09T07:29:00;1.95;;;1.08;;
70467;SDS011;57934;51.532;7.684;2022-09-09T07:31:28;4.13;;;1.13;;
70467;SDS011;57934;51.532;7.684;2022-09-09T07:33:57;6.20;;;1.00;;
70467;SDS011;57934;51.532;7.684;2022-09-09T07:36:24;2.85;;;1.25;;
70467;SDS011;57934;51.532;7.684;2022-09-09T07:38:54;4.18;;;0.82;;
70467;SDS011;57934;51.532;7.684;2022-09-09T07:41:56;5.22;;;1.17;;
70467;SDS011;57934;51.532;7.684;2022-09-09T07:44:21;3.10;;;0.80;;
70467;SDS011;57934;51.532;7.684;2022-09-09T07:47:02;1.50;;;0.77;;
70467;SDS011;57934;51.532;7.684;2022-09-09T07:49:34;5.28;;;1.10;;
70467;SDS011;57934;51.532;7.684;2022-09-09T07:52:03;2.70;;;0.80;;
70467;SDS011;57934;51.532;7.684;2022-09-09T07:54:29;2.47;;;1.15;;
70467;SDS011;57934;51.532;7.684;2022-09-09T07:56:55;3.88;;;1.00;;
70467;SDS011;57934;51.532;7.684;2022-09-09T07:59:24;3.55;;;1.08;;
70467;SDS011;57934;51.532;7.684;2022-09-09T08:01:52;2.35;;;0.90;;
70467;SDS011;57934;51.532;7.684;2022-09-09T08:04:23;3.45;;;0.90;;
70467;SDS011;57934;51.532;7.684;2022-09-09T08:06:53;4.97;;;1.13;;
70467;SDS011;57934;51.532;7.684;2022-09-09T08:09:22;2.97;;;1.23;;
70467;SDS011;57934;51.532;7.684;2022-09-09T08:12:12;4.78;;;1.00;;
70467;SDS011;57934;51.532;7.684;2022-09-09T08:14:39;3.25;;;1.20;;
70467;SDS011;57934;51.532;7.684;2022-09-09T08:17:06;5.88;;;1.60;;
70467;SDS011;57934;51.532;7.684;2022-09-09T08:19:32;3.58;;;1.08;;
70467;SDS011;57934;51.532;7.684;2022-09-09T08:22:03;6.53;;;1.15;;
70467;SDS011;57934;51.532;7.684;2022-09-09T08:24:32;4.75;;;1.20;;
70467;SDS011;57934;51.532;7.684;2022-09-09T08:26:58;7.07;;;1.15;;
70467;SDS011;57934;51.532;7.684;2022-09-09T08:29:24;3.83;;;1.10;;
70467;SDS011;57934;51.532;7.684;2022-09-09T08:31:53;5.18;;;1.30;;
70467;SDS011;57934;51.532;7.684;2022-09-09T08:34:23;5.07;;;1.33;;
70467;SDS011;57934;51.532;7.684;2022-09-09T08:36:51;5.43;;;1.30;;
70467;SDS011;57934;51.532;7.684;2022-09-09T08:39:20;3.13;;;1.00;;
70467;SDS011;57934;51.532;7.684;2022-09-09T08:47:24;6.82;;;1.58;;
70467;SDS011;57934;51.532;7.684;2022-09-09T08:50:05;3.92;;;1.23;;
70467;SDS011;57934;51.532;7.684;2022-09-09T08:53:05;5.07;;;1.20;;
70467;SDS011;57934;51.532;7.684;2022-09-09T08:55:56;3.88;;;1.27;;
70467;SDS011;57934;51.532;7.684;2022-09-09T08:58:35;4.72;;;1.13;;
70467;SDS011;57934;51.532;7.684;2022-09-09T09:01:16;6.18;;;1.15;;
70467;SDS011;57934;51.532;7.684;2022-09-09T09:06:44;4.30;;;1.13;;
70467;SDS011;57934;51.532;7.684;2022-09-09T09:09:23;6.35;;;1.17;;
70467;SDS011;57934;51.532;7.684;2022-09-09T09:12:02;4.88;;;1.40;;
70467;SDS011;57934;51.532;7.684;2022-09-09T09:14:36;6.25;;;1.30;;
70467;SDS011;57934;51.532;7.684;2022-09-09T09:17:09;4.60;;;1.13;;
70467;SDS011;57934;51.532;7.684;2022-09-09T09:19:41;6.30;;;1.00;;
70467;SDS011;57934;51.532;7.684;2022-09-09T09:22:21;5.07;;;1.08;;
70467;SDS011;57934;51.532;7.684;2022-09-09T09:24:55;3.13;;;0.90;;
70467;SDS011;57934;51.532;7.684;2022-09-09T09:30:16;4.68;;;1.23;;
70467;SDS011;57934;51.532;7.684;2022-09-09T09:32:52;4.63;;;1.13;;
70467;SDS011;57934;51.532;7.684;2022-09-09T09:35:21;5.43;;;1.02;;
70467;SDS011;57934;51.532;7.684;2022-09-09T09:37:47;3.13;;;1.13;;
70467;SDS011;57934;51.532;7.684;2022-09-09T09:40:18;4.50;;;1.23;;
70467;SDS011;57934;51.532;7.684;2022-09-09T09:45:35;3.25;;;1.10;;
70467;SDS011;57934;51.532;7.684;2022-09-09T09:48:09;2.63;;;1.08;;
70467;SDS011;57934;51.532;7.684;2022-09-09T09:50:52;1.80;;;0.90;;
70467;SDS011;57934;51.532;7.684;2022-09-09T09:55:55;3.72;;;1.30;;
70467;SDS011;57934;51.532;7.684;2022-09-09T09:58:25;4.32;;;1.05;;
70467;SDS011;57934;51.532;7.684;2022-09-09T10:00:53;5.15;;;1.05;;
70467;SDS011;57934;51.532;7.684;2022-09-09T10:03:31;6.00;;;1.50;;
70467;SDS011;57934;51.532;7.684;2022-09-09T10:06:03;3.78;;;1.13;;
70467;SDS011;57934;51.532;7.684;2022-09-09T10:08:32;5.35;;;1.33;;
70467;SDS011;57934;51.532;7.684;2022-09-09T10:13:53;5.85;;;1.17;;
70467;SDS011;57934;51.532;7.684;2022-09-09T10:16:59;4.25;;;1.20;;
70467;SDS011;57934;51.532;7.684;2022-09-09T10:19:34;6.10;;;1.05;;
70467;SDS011;57934;51.532;7.684;2022-09-09T10:27:54;4.40;;;1.55;;
70467;SDS011;57934;51.532;7.684;2022-09-09T10:33:28;6.40;;;1.05;;
70467;SDS011;57934;51.532;7.684;2022-09-09T10:36:07;5.90;;;1.08;;
70467;SDS011;57934;51.532;7.684;2022-09-09T10:38:40;5.03;;;1.17;;
70467;SDS011;57934;51.532;7.684;2022-09-09T10:49:57;3.50;;;0.90;;
70467;SDS011;57934;51.532;7.684;2022-09-09T10:55:20;5.88;;;1.20;;
70467;SDS011;57934;51.532;7.684;2022-09-09T10:57:52;5.68;;;1.00;;
70467;SDS011;57934;51.532;7.684;2022-09-09T11:00:22;3.97;;;1.15;;
70467;SDS011;57934;51.532;7.684;2022-09-09T11:03:22;4.57;;;1.10;;
70467;SDS011;57934;51.532;7.684;2022-09-09T11:06:00;2.35;;;1.00;;
70467;SDS011;57934;51.532;7.684;2022-09-09T11:08:31;3.05;;;0.90;;
70467;SDS011;57934;51.532;7.684;2022-09-09T11:14:12;5.03;;;1.27;;
70467;SDS011;57934;51.532;7.684;2022-09-09T11:16:50;2.55;;;1.08;;
70467;SDS011;57934;51.532;7.684;2022-09-09T11:19:28;3.88;;;1.65;;
70467;SDS011;57934;51.532;7.684;2022-09-09T11:22:04;4.20;;;1.02;;
70467;SDS011;57934;51.532;7.684;2022-09-09T11:24:46;3.92;;;0.95;;
70467;SDS011;57934;51.532;7.684;2022-09-09T11:32:32;2.38;;;0.77;;
70467;SDS011;57934;51.532;7.684;2022-09-09T11:35:26;3.47;;;1.20;;
70467;SDS011;57934;51.532;7.684;2022-09-09T11:38:11;3.90;;;0.80;;
70467;SDS011;57934;51.532;7.684;2022-09-09T11:40:44;2.80;;;1.00;;
70467;SDS011;57934;51.532;7.684;2022-09-09T11:43:12;4.70;;;0.80;;
70467;SDS011;57934;51.532;7.684;2022-09-09T11:45:42;3.03;;;0.85;;
70467;SDS011;57934;51.532;7.684;2022-09-09T11:48:23;2.78;;;0.63;;
70467;SDS011;57934;51.532;7.684;2022-09-09T11:56:23;3.38;;;0.80;;
70467;SDS011;57934;51.532;7.684;2022-09-09T11:58:59;3.22;;;0.93;;
70467;SDS011;57934;51.532;7.684;2022-09-09T12:01:30;7.28;;;1.20;;
70467;SDS011;57934;51.532;7.684;2022-09-09T12:07:01;1.45;;;0.65;;
70467;SDS011;57934;51.532;7.684;2022-09-09T12:09:47;3.13;;;0.68;;
70467;SDS011;57934;51.532;7.684;2022-09-09T12:12:22;1.98;;;1.00;;
70467;SDS011;57934;51.532;7.684;2022-09-09T12:14:55;3.50;;;1.00;;
70467;SDS011;57934;51.532;7.684;2022-09-09T12:17:22;2.83;;;0.70;;
70467;SDS011;57934;51.532;7.684;2022-09-09T12:20:00;3.83;;;0.90;;
70467;SDS011;57934;51.532;7.684;2022-09-09T12:22:58;3.83;;;0.98;;
70467;SDS011;57934;51.532;7.684;2022-09-09T12:25:35;1.80;;;0.90;;
70467;SDS011;57934;51.532;7.684;2022-09-09T12:28:22;4.63;;;1.17;;
70467;SDS011;57934;51.532;7.684;2022-09-09T12:33:43;2.00;;;0.60;;
70467;SDS011;57934;51.532;7.684;2022-09-09T12:36:14;3.60;;;0.90;;
70467;SDS011;57934;51.532;7.684;2022-09-09T12:38:45;2.25;;;1.02;;
70467;SDS011;57934;51.532;7.684;2022-09-09T12:41:18;2.00;;;0.75;;
70467;SDS011;57934;51.532;7.684;2022-09-09T12:43:46;2.97;;;0.70;;
70467;SDS011;57934;51.532;7.684;2022-09-09T12:46:17;4.45;;;0.75;;
70467;SDS011;57934;51.532;7.684;2022-09-09T12:48:54;5.30;;;0.65;;
70467;SDS011;57934;51.532;7.684;2022-09-09T12:51:25;1.65;;;0.68;;
70467;SDS011;57934;51.532;7.684;2022-09-09T12:53:54;3.17;;;0.90;;
70467;SDS011;57934;51.532;7.684;2022-09-09T12:56:22;3.85;;;1.30;;
70467;SDS011;57934;51.532;7.684;2022-09-09T12:58:55;2.65;;;0.80;;
70467;SDS011;57934;51.532;7.684;2022-09-09T13:03:51;3.90;;;0.77;;
70467;SDS011;57934;51.532;7.684;2022-09-09T13:06:19;5.75;;;1.15;;
70467;SDS011;57934;51.532;7.684;2022-09-09T13:08:51;3.58;;;1.08;;
70467;SDS011;57934;51.532;7.684;2022-09-09T13:11:38;3.35;;;0.88;;
70467;SDS011;57934;51.532;7.684;2022-09-09T13:14:25;3.97;;;0.90;;
70467;SDS011;57934;51.532;7.684;2022-09-09T13:16:56;2.72;;;1.10;;
70467;SDS011;57934;51.532;7.684;2022-09-09T13:19:23;2.22;;;0.93;;
70467;SDS011;57934;51.532;7.684;2022-09-09T13:21:54;4.68;;;1.23;;
70467;SDS011;57934;51.532;7.684;2022-09-09T13:24:24;2.08;;;0.70;;
70467;SDS011;57934;51.532;7.684;2022-09-09T13:26:58;4.22;;;1.13;;
70467;SDS011;57934;51.532;7.684;2022-09-09T13:29:27;4.97;;;0.90;;
70467;SDS011;57934;51.532;7.684;2022-09-09T13:31:54;3.85;;;0.90;;
70467;SDS011;57934;51.532;7.684;2022-09-09T13:34:31;3.45;;;0.93;;
70467;SDS011;57934;51.532;7.684;2022-09-09T13:36:59;4.32;;;0.98;;
70467;SDS011;57934;51.532;7.684;2022-09-09T13:39:34;2.35;;;0.95;;
70467;SDS011;57934;51.532;7.684;2022-09-09T13:42:02;4.35;;;1.02;;
70467;SDS011;57934;51.532;7.684;2022-09-09T13:44:30;3.67;;;1.27;;
70467;SDS011;57934;51.532;7.684;2022-09-09T13:47:03;5.97;;;1.13;;
70467;SDS011;57934;51.532;7.684;2022-09-09T13:49:31;1.92;;;1.10;;
70467;SDS011;57934;51.532;7.684;2022-09-09T13:52:03;6.00;;;1.17;;
70467;SDS011;57934;51.532;7.684;2022-09-09T13:54:34;3.50;;;1.30;;
70467;SDS011;57934;51.532;7.684;2022-09-09T13:57:00;3.80;;;1.13;;
70467;SDS011;57934;51.532;7.684;2022-09-09T13:59:27;5.35;;;0.93;;
70467;SDS011;57934;51.532;7.684;2022-09-09T14:01:53;2.65;;;1.05;;
70467;SDS011;57934;51.532;7.684;2022-09-09T14:04:19;2.45;;;0.90;;
70467;SDS011;57934;51.532;7.684;2022-09-09T14:06:49;3.40;;;0.70;;
70467;SDS011;57934;51.532;7.684;2022-09-09T14:09:16;3.60;;;0.90;;
70467;SDS011;57934;51.532;7.684;2022-09-09T14:11:44;5.65;;;1.10;;
70467;SDS011;57934;51.532;7.684;2022-09-09T14:14:11;2.78;;;0.73;;
70467;SDS011;57934;51.532;7.684;2022-09-09T14:16:37;4.70;;;0.90;;
70467;SDS011;57934;51.532;7.684;2022-09-09T14:19:03;2.72;;;0.65;;
70467;SDS011;57934;51.532;7.684;2022-09-09T14:21:29;3.90;;;0.60;;
70467;SDS011;57934;51.532;7.684;2022-09-09T14:23:55;1.48;;;0.60;;
70467;SDS011;57934;51.532;7.684;2022-09-09T14:26:23;2.55;;;0.90;;
70467;SDS011;57934;51.532;7.684;2022-09-09T14:28:50;3.58;;;0.88;;
70467;SDS011;57934;51.532;7.684;2022-09-09T14:31:17;3.97;;;0.90;;
70467;SDS011;57934;51.532;7.684;2022-09-09T14:33:44;4.65;;;1.25;;
70467;SDS011;57934;51.532;7.684;2022-09-09T14:36:10;5.00;;;1.15;;
70467;SDS011;57934;51.532;7.684;2022-09-09T14:38:37;3.25;;;1.38;;
70467;SDS011;57934;51.532;7.684;2022-09-09T14:41:09;4.30;;;1.10;;
70467;SDS011;57934;51.532;7.684;2022-09-09T14:43:40;6.40;;;1.10;;
70467;SDS011;57934;51.532;7.684;2022-09-09T14:46:06;4.95;;;1.48;;
70467;SDS011;57934;51.532;7.684;2022-09-09T14:48:33;2.65;;;1.42;;
70467;SDS011;57934;51.532;7.684;2022-09-09T14:53:38;2.40;;;0.90;;
70467;SDS011;57934;51.532;7.684;2022-09-09T14:56:10;2.83;;;0.88;;
70467;SDS011;57934;51.532;7.684;2022-09-09T14:58:37;4.20;;;0.85;;
70467;SDS011;57934;51.532;7.684;2022-09-09T15:01:14;1.83;;;0.60;;
70467;SDS011;57934;51.532;7.684;2022-09-09T15:03:41;3.03;;;0.70;;
70467;SDS011;57934;51.532;7.684;2022-09-09T15:06:10;3.75;;;0.70;;
70467;SDS011;57934;51.532;7.684;2022-09-09T15:08:39;7.40;;;1.33;;
70467;SDS011;57934;51.532;7.684;2022-09-09T15:11:07;3.33;;;0.70;;
70467;SDS011;57934;51.532;7.684;2022-09-09T15:13:34;4.35;;;1.20;;
70467;SDS011;57934;51.532;7.684;2022-09-09T15:16:10;4.18;;;1.00;;
70467;SDS011;57934;51.532;7.684;2022-09-09T15:18:38;2.80;;;0.77;;
70467;SDS011;57934;51.532;7.684;2022-09-09T15:21:09;2.55;;;1.10;;
70467;SDS011;57934;51.532;7.684;2022-09-09T15:23:35;3.90;;;1.00;;
70467;SDS011;57934;51.532;7.684;2022-09-09T15:26:02;3.30;;;1.17;;
70467;SDS011;57934;51.532;7.684;2022-09-09T15:28:30;3.65;;;0.90;;
70467;SDS011;57934;51.532;7.684;2022-09-09T15:30:58;3.05;;;1.10;;
70467;SDS011;57934;51.532;7.684;2022-09-09T15:33:25;3.17;;;1.00;;
70467;SDS011;57934;51.532;7.684;2022-09-09T15:35:51;2.50;;;0.80;;
70467;SDS011;57934;51.532;7.684;2022-09-09T15:38:17;2.35;;;0.88;;
70467;SDS011;57934;51.532;7.684;2022-09-09T15:40:44;2.10;;;0.80;;
70467;SDS011;57934;51.532;7.684;2022-09-09T15:43:12;3.22;;;1.05;;
70467;SDS011;57934;51.532;7.684;2022-09-09T15:45:38;2.17;;;1.00;;
70467;SDS011;57934;51.532;7.684;2022-09-09T15:48:04;3.00;;;1.10;;
70467;SDS011;57934;51.532;7.684;2022-09-09T15:50:30;4.07;;;0.90;;
70467;SDS011;57934;51.532;7.684;2022-09-09T15:52:58;4.88;;;1.20;;
70467;SDS011;57934;51.532;7.684;2022-09-09T15:55:24;5.05;;;1.40;;
70467;SDS011;57934;51.532;7.684;2022-09-09T15:57:51;7.00;;;1.23;;
70467;SDS011;57934;51.532;7.684;2022-09-09T16:00:20;6.13;;;1.40;;
70467;SDS011;57934;51.532;7.684;2022-09-09T16:02:47;5.28;;;2.17;;
70467;SDS011;57934;51.532;7.684;2022-09-09T16:05:13;3.90;;;1.40;;
70467;SDS011;57934;51.532;7.684;2022-09-09T16:07:39;6.47;;;1.90;;
70467;SDS011;57934;51.532;7.684;2022-09-09T16:10:08;6.10;;;1.80;;
70467;SDS011;57934;51.532;7.684;2022-09-09T16:12:34;6.50;;;2.05;;
70467;SDS011;57934;51.532;7.684;2022-09-09T16:15:00;5.82;;;2.10;;
70467;SDS011;57934;51.532;7.684;2022-09-09T16:17:26;4.55;;;2.00;;
70467;SDS011;57934;51.532;7.684;2022-09-09T16:19:53;7.25;;;2.40;;
70467;SDS011;57934;51.532;7.684;2022-09-09T16:22:20;4.72;;;1.70;;
70467;SDS011;57934;51.532;7.684;2022-09-09T16:24:46;6.00;;;1.70;;
70467;SDS011;57934;51.532;7.684;2022-09-09T16:27:12;4.70;;;1.73;;
70467;SDS011;57934;51.532;7.684;2022-09-09T16:29:38;6.03;;;1.92;;
70467;SDS011;57934;51.532;7.684;2022-09-09T16:32:04;5.82;;;2.55;;
70467;SDS011;57934;51.532;7.684;2022-09-09T16:34:30;5.22;;;1.80;;
70467;SDS011;57934;51.532;7.684;2022-09-09T16:36:56;5.03;;;1.13;;
70467;SDS011;57934;51.532;7.684;2022-09-09T16:39:22;5.93;;;1.42;;
70467;SDS011;57934;51.532;7.684;2022-09-09T16:41:48;5.68;;;1.20;;
70467;SDS011;57934;51.532;7.684;2022-09-09T16:44:15;4.25;;;1.13;;